createdAt,value
2017-02-27T00:00:35.511Z,71.98
2017-02-27T00:01:35.191Z,73.03
2017-02-27T00:02:35.161Z,72.17
2017-02-27T00:03:35.598Z,71.98
2017-02-27T00:04:35.136Z,72.45
2017-02-27T00:05:35.134Z,71.7
2017-02-27T00:06:35.582Z,71.51
2017-02-27T00:07:35.098Z,71.7
2017-02-27T00:08:34.727Z,71.89
2017-02-27T00:09:35.616Z,72.27
2017-02-27T00:10:35.056Z,72.17
2017-02-27T00:11:35.176Z,72.74
2017-02-27T00:12:34.638Z,72.97
2017-02-27T00:13:35.021Z,72.08
2017-02-27T00:14:35.118Z,72.11
2017-02-27T00:15:34.993Z,72.11
2017-02-27T00:16:34.982Z,72.3
2017-02-27T00:17:35.548Z,72.78
2017-02-27T00:18:34.568Z,72.59
2017-02-27T00:19:34.949Z,72.97
2017-02-27T00:20:35.337Z,73.25
2017-02-27T00:21:34.915Z,73.25
2017-02-27T00:22:35.192Z,72.02
2017-02-27T00:23:35.110Z,71.45
2017-02-27T00:24:34.881Z,71.17
2017-02-27T00:25:35.412Z,71.55
2017-02-27T00:26:34.860Z,72.11
2017-02-27T00:27:34.847Z,71.45
2017-02-27T00:28:35.008Z,72.3
2017-02-27T00:29:34.816Z,72.4
2017-02-27T00:30:34.800Z,72.4
2017-02-27T00:31:35.202Z,72.49
2017-02-27T00:32:34.390Z,71.83
2017-02-27T00:33:34.768Z,71.73
2017-02-27T00:34:34.735Z,72.3
2017-02-27T00:35:34.737Z,72.49
2017-02-27T00:36:34.330Z,72.49
2017-02-27T00:37:34.762Z,72.88
2017-02-27T00:38:34.831Z,72.4
2017-02-27T00:39:34.701Z,72.4
2017-02-27T00:40:34.675Z,72.3
2017-02-27T00:41:35.148Z,73.25
2017-02-27T00:42:34.259Z,73.82
2017-02-27T00:43:34.641Z,73.16
2017-02-27T00:44:35.163Z,73.63
2017-02-27T00:45:34.617Z,73.72
2017-02-27T00:46:34.601Z,74.3
2017-02-27T00:47:35.305Z,73.72
2017-02-27T00:48:34.582Z,73.35
2017-02-27T00:49:34.562Z,73.92
2017-02-27T00:50:35.101Z,74.11
2017-02-27T00:51:34.542Z,74.49
2017-02-27T00:52:34.129Z,74.87
2017-02-27T00:53:34.511Z,75.53
2017-02-27T00:54:34.508Z,74.96
2017-02-27T00:55:34.556Z,75.91
2017-02-27T00:56:34.082Z,76.01
2017-02-27T00:57:34.473Z,75.43
2017-02-27T00:58:34.681Z,76.01
2017-02-27T00:59:34.042Z,76.1
2017-02-27T01:00:34.442Z,76.57
2017-02-27T01:01:34.416Z,76.67
2017-02-27T01:02:34.401Z,76.1
2017-02-27T01:03:33.995Z,76.2
2017-02-27T01:04:34.528Z,76.67
2017-02-27T01:05:34.373Z,76.57
2017-02-27T01:06:34.354Z,77.05
2017-02-27T01:07:34.090Z,77.81
2017-02-27T01:08:34.344Z,77.62
2017-02-27T01:09:34.041Z,78.28
2017-02-27T01:10:34.333Z,77.81
2017-02-27T01:11:34.302Z,77.62
2017-02-27T01:12:34.421Z,78.19
2017-02-27T01:13:34.280Z,77.71
2017-02-27T01:14:34.260Z,78.28
2017-02-27T01:15:34.375Z,78.19
2017-02-27T01:16:33.842Z,78.09
2017-02-27T01:17:34.221Z,78.38
2017-02-27T01:18:34.236Z,78.47
2017-02-27T01:19:34.207Z,79.23
2017-02-27T01:20:34.184Z,78.66
2017-02-27T01:21:34.744Z,78.47
2017-02-27T01:22:34.161Z,79.71
2017-02-27T01:23:34.164Z,79.9
2017-02-27T01:24:34.720Z,79.8
2017-02-27T01:25:34.123Z,79.99
2017-02-27T01:26:34.112Z,80.08
2017-02-27T01:27:34.661Z,80.75
2017-02-27T01:28:33.690Z,80.27
2017-02-27T01:29:34.085Z,80.84
2017-02-27T01:30:34.032Z,81.32
2017-02-27T01:31:34.051Z,81.51
2017-02-27T01:32:33.638Z,81.6
2017-02-27T01:33:34.771Z,82.55
2017-02-27T01:34:33.624Z,82.93
2017-02-27T01:52:43.802Z,86.16
2017-02-27T01:53:39.594Z,86.82
2017-02-27T01:54:39.584Z,87.2
2017-02-27T01:55:39.569Z,87.01
2017-02-27T01:56:39.554Z,86.91
2017-02-27T01:57:39.562Z,86.54
2017-02-27T01:58:39.548Z,86.35
2017-02-27T01:59:39.518Z,85.87
2017-02-27T02:00:39.519Z,85.97
2017-02-27T02:01:39.503Z,86.54
2017-02-27T02:02:39.497Z,85.87
2017-02-27T02:03:39.473Z,86.63
2017-02-27T02:04:39.458Z,87.01
2017-02-27T02:05:39.447Z,87.68
2017-02-27T02:06:39.433Z,87.2
2017-02-27T02:07:39.430Z,87.11
2017-02-27T02:08:39.408Z,87.01
2017-02-27T02:09:39.398Z,87.77
2017-02-27T02:10:39.393Z,88.15
2017-02-27T02:11:39.372Z,87.68
2017-02-27T02:12:39.357Z,87.96
2017-02-27T02:13:39.349Z,88.06
2017-02-27T02:14:39.340Z,88.06
2017-02-27T02:15:39.336Z,88.72
2017-02-27T02:16:39.317Z,88.81
2017-02-27T02:17:39.301Z,89.2
2017-02-27T02:18:39.290Z,89.58
2017-02-27T02:19:39.282Z,89.67
2017-02-27T02:20:39.261Z,89.58
2017-02-27T02:21:39.257Z,90.52
2017-02-27T02:22:39.247Z,90.9
2017-02-27T02:23:39.240Z,90.9
2017-02-27T02:24:39.208Z,91.47
2017-02-27T02:25:39.196Z,93.18
2017-02-27T02:26:39.187Z,92.94
2017-02-27T02:27:39.173Z,93.84
2017-02-27T02:28:39.176Z,93.61
2017-02-27T02:29:39.150Z,94.7
2017-02-27T02:30:38.748Z,95.07
2017-02-27T02:31:39.122Z,96.03
2017-02-27T02:32:39.111Z,96.12
2017-02-27T02:33:39.097Z,97.83
2017-02-27T02:34:39.088Z,97.17
2017-02-27T02:35:39.074Z,97.83
2017-02-27T02:36:39.069Z,98.78
2017-02-27T02:37:39.048Z,99.16
2017-02-27T02:38:39.036Z,99.63
2017-02-27T02:39:39.029Z,99.73
2017-02-27T02:40:39.024Z,99.73
2017-02-27T02:41:39.008Z,99.99
2017-02-27T02:42:38.987Z,99.99
2017-02-27T02:43:38.984Z,99.99
2017-02-27T02:44:38.961Z,99.99
2017-02-27T02:45:38.952Z,99.99
2017-02-27T02:46:38.937Z,99.99
2017-02-27T02:47:38.922Z,99.99
2017-02-27T02:48:38.907Z,99.99
2017-02-27T02:49:38.510Z,99.99
2017-02-27T02:50:38.886Z,99.99
2017-02-27T02:51:38.872Z,99.99
2017-02-27T02:52:38.864Z,99.99
2017-02-27T02:53:38.847Z,99.99
2017-02-27T02:54:38.845Z,99.99
2017-02-27T02:55:38.824Z,99.99
2017-02-27T02:56:38.815Z,99.99
2017-02-27T02:57:38.808Z,99.99
2017-02-27T02:58:38.810Z,99.99
2017-02-27T02:59:38.786Z,99.99
2017-02-27T03:00:38.766Z,99.99
2017-02-27T03:01:38.352Z,99.99
2017-02-27T03:02:38.738Z,99.99
2017-02-27T03:03:38.728Z,99.99
2017-02-27T03:04:38.727Z,99.99
2017-02-27T03:05:38.704Z,99.99
2017-02-27T03:06:38.700Z,99.99
2017-02-27T03:07:38.677Z,99.99
2017-02-27T03:08:38.680Z,99.99
2017-02-27T03:09:38.655Z,99.99
2017-02-27T03:10:38.641Z,99.99
2017-02-27T03:11:38.629Z,99.99
2017-02-27T03:12:38.621Z,99.99
2017-02-27T03:13:38.603Z,99.99
2017-02-27T03:14:38.616Z,99.99
2017-02-27T03:15:38.580Z,99.99
2017-02-27T03:16:38.567Z,99.99
2017-02-27T03:17:38.572Z,99.99
2017-02-27T03:18:38.544Z,99.99
2017-02-27T03:19:38.530Z,99.99
2017-02-27T03:20:38.519Z,99.99
2017-02-27T03:21:38.504Z,99.99
2017-02-27T03:22:38.495Z,99.99
2017-02-27T03:23:38.485Z,99.99
2017-02-27T03:24:38.469Z,99.99
2017-02-27T03:25:38.458Z,99.99
2017-02-27T03:26:38.447Z,99.99
2017-02-27T03:27:38.435Z,99.99
2017-02-27T03:28:38.422Z,99.99
2017-02-27T03:29:38.411Z,99.99
2017-02-27T03:30:38.395Z,99.99
2017-02-27T03:31:38.388Z,99.99
2017-02-27T03:32:38.384Z,99.99
2017-02-27T03:33:37.981Z,99.99
2017-02-27T03:34:38.349Z,99.99
2017-02-27T03:35:38.336Z,99.99
2017-02-27T03:36:38.325Z,99.99
2017-02-27T03:37:38.328Z,99.99
2017-02-27T03:38:38.300Z,99.99
2017-02-27T03:39:38.288Z,99.99
2017-02-27T03:40:38.276Z,99.99
2017-02-27T03:41:38.265Z,99.99
2017-02-27T03:42:38.252Z,99.99
2017-02-27T03:43:38.237Z,99.99
2017-02-27T03:44:38.228Z,99.99
2017-02-27T03:45:38.215Z,99.99
2017-02-27T03:46:38.202Z,99.99
2017-02-27T03:47:38.189Z,99.99
2017-02-27T03:48:38.179Z,99.99
2017-02-27T03:49:38.167Z,99.99
2017-02-27T03:50:38.153Z,99.99
2017-02-27T03:51:38.143Z,99.99
2017-02-27T03:52:38.127Z,99.99
2017-02-27T03:53:38.120Z,99.99
2017-02-27T03:54:38.107Z,99.99
2017-02-27T03:55:38.107Z,99.99
2017-02-27T03:56:38.078Z,99.99
2017-02-27T03:57:38.072Z,99.99
2017-02-27T03:58:38.069Z,99.99
2017-02-27T03:59:38.049Z,99.99
2017-02-27T04:00:38.028Z,99.99
2017-02-27T04:01:38.018Z,99.99
2017-02-27T04:02:38.017Z,99.99
2017-02-27T04:03:38.014Z,99.99
2017-02-27T04:04:37.978Z,99.99
2017-02-27T04:05:37.989Z,99.99
2017-02-27T04:06:37.968Z,99.99
2017-02-27T04:07:37.942Z,99.99
2017-02-27T04:08:37.931Z,99.99
2017-02-27T04:09:37.921Z,99.99
2017-02-27T04:10:37.523Z,99.99
2017-02-27T04:11:37.895Z,99.99
2017-02-27T04:12:37.894Z,99.99
2017-02-27T04:13:37.868Z,99.99
2017-02-27T04:14:37.858Z,99.99
2017-02-27T04:15:37.865Z,99.99
2017-02-27T04:16:37.840Z,99.99
2017-02-27T04:17:37.818Z,99.99
2017-02-27T04:18:37.808Z,99.99
2017-02-27T04:19:37.798Z,99.99
2017-02-27T04:20:37.384Z,99.99
2017-02-27T04:21:37.769Z,99.99
2017-02-27T04:22:37.759Z,99.99
2017-02-27T04:23:37.748Z,99.99
2017-02-27T04:24:37.733Z,99.99
2017-02-27T04:25:37.721Z,99.99
2017-02-27T04:26:37.708Z,99.99
2017-02-27T04:27:37.699Z,99.99
2017-02-27T04:28:37.689Z,99.99
2017-02-27T04:29:37.679Z,99.99
2017-02-27T04:30:37.659Z,99.99
2017-02-27T04:31:37.646Z,99.99
2017-02-27T04:32:37.642Z,99.99
2017-02-27T04:33:37.624Z,99.99
2017-02-27T04:34:37.632Z,99.99
2017-02-27T04:35:37.599Z,99.99
2017-02-27T04:36:37.585Z,99.99
2017-02-27T04:37:37.580Z,99.99
2017-02-27T04:38:37.560Z,99.99
2017-02-27T04:39:37.545Z,99.99
2017-02-27T04:40:37.538Z,99.99
2017-02-27T04:41:37.527Z,99.99
2017-02-27T04:42:37.510Z,99.99
2017-02-27T04:43:37.502Z,99.99
2017-02-27T04:44:37.087Z,99.99
2017-02-27T04:45:37.491Z,99.99
2017-02-27T04:46:37.479Z,99.99
2017-02-27T04:47:37.055Z,99.99
2017-02-27T04:48:37.451Z,99.99
2017-02-27T04:49:37.423Z,99.99
2017-02-27T04:50:37.409Z,99.99
2017-02-27T04:51:37.398Z,99.99
2017-02-27T04:52:37.386Z,99.99
2017-02-27T04:53:37.372Z,99.99
2017-02-27T04:54:37.359Z,99.99
2017-02-27T04:55:37.349Z,99.99
2017-02-27T04:56:36.940Z,99.99
2017-02-27T04:57:37.335Z,99.99
2017-02-27T04:58:37.317Z,99.99
2017-02-27T04:59:37.301Z,99.99
2017-02-27T05:00:37.287Z,99.99
2017-02-27T05:01:37.282Z,99.99
2017-02-27T05:02:37.263Z,99.99
2017-02-27T05:03:37.249Z,99.99
2017-02-27T05:04:37.240Z,99.99
2017-02-27T05:05:37.225Z,99.99
2017-02-27T05:06:37.225Z,99.99
2017-02-27T05:07:37.211Z,99.99
2017-02-27T05:08:37.189Z,99.99
2017-02-27T05:09:37.177Z,99.99
2017-02-27T05:10:37.161Z,99.99
2017-02-27T05:11:37.150Z,99.99
2017-02-27T05:12:37.145Z,99.99
2017-02-27T05:13:37.136Z,99.99
2017-02-27T05:14:37.115Z,99.99
2017-02-27T05:15:37.100Z,99.99
2017-02-27T05:16:37.090Z,99.99
2017-02-27T05:17:37.072Z,99.99
2017-02-27T05:18:37.062Z,99.99
2017-02-27T05:19:37.065Z,99.99
2017-02-27T05:20:37.042Z,99.99
2017-02-27T05:21:36.627Z,99.99
2017-02-27T05:22:37.013Z,99.99
2017-02-27T05:23:36.999Z,99.99
2017-02-27T05:24:36.998Z,99.99
2017-02-27T05:25:36.982Z,99.99
2017-02-27T05:26:36.961Z,99.99
2017-02-27T05:27:36.948Z,99.99
2017-02-27T05:28:36.937Z,99.99
2017-02-27T05:29:36.927Z,99.99
2017-02-27T05:30:36.517Z,99.99
2017-02-27T05:31:36.918Z,99.99
2017-02-27T05:32:36.897Z,99.99
2017-02-27T05:33:36.876Z,99.99
2017-02-27T05:34:36.872Z,99.99
2017-02-27T05:35:36.857Z,99.99
2017-02-27T05:36:36.835Z,99.99
2017-02-27T05:37:36.840Z,99.99
2017-02-27T05:38:36.820Z,99.99
2017-02-27T05:39:36.808Z,99.99
2017-02-27T05:40:36.786Z,99.99
2017-02-27T05:41:36.776Z,99.99
2017-02-27T05:42:36.761Z,99.99
2017-02-27T05:43:36.750Z,99.99
2017-02-27T05:44:36.738Z,99.99
2017-02-27T05:45:36.727Z,99.99
2017-02-27T05:46:36.711Z,99.99
2017-02-27T05:47:36.703Z,99.99
2017-02-27T05:48:36.686Z,99.99
2017-02-27T05:49:36.675Z,99.99
2017-02-27T05:50:36.679Z,99.99
2017-02-27T05:51:36.652Z,99.99
2017-02-27T05:52:36.639Z,99.99
2017-02-27T05:53:36.633Z,99.99
2017-02-27T05:54:36.615Z,99.99
2017-02-27T05:55:36.602Z,99.99
2017-02-27T05:56:36.590Z,99.99
2017-02-27T05:57:36.582Z,99.99
2017-02-27T05:58:36.567Z,99.99
2017-02-27T05:59:36.569Z,99.99
2017-02-27T06:00:36.546Z,99.99
2017-02-27T06:01:36.527Z,99.99
2017-02-27T06:02:36.519Z,99.99
2017-02-27T06:03:36.506Z,99.99
2017-02-27T06:04:36.493Z,99.99
2017-02-27T06:05:36.477Z,99.99
2017-02-27T06:06:36.478Z,99.99
2017-02-27T06:07:36.056Z,99.99
2017-02-27T06:08:36.050Z,99.99
2017-02-27T06:09:36.435Z,99.99
2017-02-27T06:10:36.421Z,99.99
2017-02-27T06:11:36.401Z,99.99
2017-02-27T06:12:36.395Z,99.99
2017-02-27T06:13:36.380Z,99.99
2017-02-27T06:14:36.367Z,99.99
2017-02-27T06:15:35.956Z,99.99
2017-02-27T06:16:36.341Z,99.99
2017-02-27T06:17:36.327Z,99.99
2017-02-27T06:18:36.334Z,99.99
2017-02-27T06:19:36.302Z,99.99
2017-02-27T06:20:36.297Z,99.99
2017-02-27T06:21:36.291Z,99.99
2017-02-27T06:22:36.268Z,99.99
2017-02-27T06:23:36.267Z,99.99
2017-02-27T06:24:36.245Z,99.99
2017-02-27T06:25:36.228Z,99.99
2017-02-27T06:26:36.224Z,99.99
2017-02-27T06:27:36.216Z,99.99
2017-02-27T06:28:36.194Z,99.99
2017-02-27T06:29:36.180Z,99.99
2017-02-27T06:30:35.787Z,99.99
2017-02-27T06:31:36.156Z,99.99
2017-02-27T06:32:35.748Z,99.99
2017-02-27T06:33:35.744Z,99.99
2017-02-27T06:34:35.723Z,99.99
2017-02-27T06:35:35.711Z,99.99
2017-02-27T06:36:35.700Z,99.99
2017-02-27T06:37:35.686Z,99.99
2017-02-27T06:38:36.075Z,99.99
2017-02-27T06:39:36.072Z,99.99
2017-02-27T06:40:36.064Z,99.99
2017-02-27T06:41:36.034Z,99.99
2017-02-27T06:42:36.024Z,99.99
2017-02-27T06:43:36.027Z,99.99
2017-02-27T06:44:35.998Z,99.99
2017-02-27T06:45:35.997Z,99.99
2017-02-27T06:46:35.977Z,99.99
2017-02-27T06:47:35.961Z,99.99
2017-02-27T06:48:35.950Z,99.99
2017-02-27T06:49:35.947Z,99.99
2017-02-27T06:50:35.942Z,99.99
2017-02-27T06:51:35.922Z,99.99
2017-02-27T06:52:35.901Z,99.99
2017-02-27T06:53:35.894Z,99.99
2017-02-27T06:54:35.877Z,99.99
2017-02-27T06:55:35.473Z,99.99
2017-02-27T06:56:35.852Z,99.99
2017-02-27T06:57:35.848Z,99.99
2017-02-27T06:58:35.843Z,99.99
2017-02-27T06:59:35.815Z,99.99
2017-02-27T07:00:35.812Z,99.99
2017-02-27T07:01:35.793Z,99.99
2017-02-27T07:02:35.783Z,99.99
2017-02-27T07:03:35.767Z,99.99
2017-02-27T07:04:35.755Z,99.99
2017-02-27T07:05:35.758Z,99.99
2017-02-27T07:06:35.733Z,99.99
2017-02-27T07:07:35.720Z,99.99
2017-02-27T07:08:35.709Z,99.99
2017-02-27T07:09:35.705Z,99.99
2017-02-27T07:10:35.705Z,99.99
2017-02-27T07:11:35.674Z,99.99
2017-02-27T07:12:35.661Z,99.99
2017-02-27T07:13:35.652Z,99.99
2017-02-27T07:14:35.251Z,99.99
2017-02-27T07:15:35.639Z,99.99
2017-02-27T07:16:35.617Z,99.99
2017-02-27T07:17:35.605Z,99.99
2017-02-27T07:18:35.599Z,99.99
2017-02-27T07:19:35.586Z,99.99
2017-02-27T07:20:35.588Z,99.99
2017-02-27T07:21:35.555Z,99.99
2017-02-27T07:22:35.548Z,99.99
2017-02-27T07:23:35.536Z,99.99
2017-02-27T07:24:35.530Z,99.99
2017-02-27T07:25:35.510Z,99.99
2017-02-27T07:26:35.499Z,99.99
2017-02-27T07:27:35.487Z,99.99
2017-02-27T07:28:35.475Z,99.99
2017-02-27T07:29:35.467Z,99.99
2017-02-27T07:30:35.462Z,99.99
2017-02-27T07:31:35.459Z,99.99
2017-02-27T07:32:35.430Z,99.99
2017-02-27T07:33:35.419Z,99.99
2017-02-27T07:34:35.408Z,99.99
2017-02-27T07:35:35.396Z,99.99
2017-02-27T07:36:35.385Z,99.99
2017-02-27T07:37:35.377Z,99.99
2017-02-27T07:38:35.364Z,99.99
2017-02-27T07:39:35.356Z,99.99
2017-02-27T07:40:35.351Z,99.99
2017-02-27T07:41:35.343Z,99.99
2017-02-27T07:42:35.325Z,99.99
2017-02-27T07:43:35.317Z,99.99
2017-02-27T07:44:35.293Z,99.99
2017-02-27T07:45:35.285Z,99.99
2017-02-27T07:46:35.271Z,99.99
2017-02-27T07:47:35.260Z,99.99
2017-02-27T07:48:35.248Z,99.99
2017-02-27T07:49:35.244Z,99.99
2017-02-27T07:50:35.227Z,99.99
2017-02-27T07:51:35.216Z,99.99
2017-02-27T07:52:35.204Z,99.99
2017-02-27T07:53:35.191Z,99.99
2017-02-27T07:54:35.186Z,99.99
2017-02-27T07:55:35.177Z,99.99
2017-02-27T07:56:35.161Z,99.99
2017-02-27T07:57:35.151Z,99.99
2017-02-27T07:58:35.141Z,99.99
2017-02-27T07:59:35.125Z,99.99
2017-02-27T08:00:35.116Z,99.99
2017-02-27T08:01:35.101Z,99.99
2017-02-27T08:02:35.103Z,99.99
2017-02-27T08:03:35.082Z,99.99
2017-02-27T08:04:35.069Z,99.99
2017-02-27T08:05:35.071Z,99.99
2017-02-27T08:06:35.054Z,99.99
2017-02-27T08:07:35.041Z,99.99
2017-02-27T08:08:35.026Z,99.99
2017-02-27T08:09:35.016Z,99.99
2017-02-27T08:10:35.011Z,99.99
2017-02-27T08:11:34.991Z,99.99
2017-02-27T08:12:34.983Z,99.99
2017-02-27T08:13:34.970Z,99.99
2017-02-27T08:14:34.971Z,99.99
2017-02-27T08:15:34.951Z,99.99
2017-02-27T08:16:34.939Z,99.99
2017-02-27T08:17:34.926Z,99.99
2017-02-27T08:18:34.917Z,99.99
2017-02-27T08:19:34.909Z,99.99
2017-02-27T08:20:34.893Z,99.99
2017-02-27T08:21:34.488Z,99.99
2017-02-27T08:22:34.878Z,99.99
2017-02-27T08:23:34.864Z,99.99
2017-02-27T08:24:34.855Z,99.99
2017-02-27T08:25:34.840Z,99.99
2017-02-27T08:26:34.832Z,99.99
2017-02-27T08:27:34.832Z,99.99
2017-02-27T08:28:34.811Z,99.99
2017-02-27T08:29:34.812Z,99.99
2017-02-27T08:30:34.786Z,99.99
2017-02-27T08:31:34.774Z,99.99
2017-02-27T08:32:34.778Z,99.99
2017-02-27T08:33:34.759Z,99.99
2017-02-27T08:34:34.751Z,99.99
2017-02-27T08:35:34.737Z,99.99
2017-02-27T08:36:34.725Z,99.99
2017-02-27T08:37:34.719Z,99.99
2017-02-27T08:38:34.716Z,99.99
2017-02-27T08:39:34.698Z,99.99
2017-02-27T08:40:34.685Z,99.99
2017-02-27T08:41:34.277Z,99.99
2017-02-27T08:42:34.662Z,99.99
2017-02-27T08:43:34.656Z,99.99
2017-02-27T08:44:34.651Z,99.99
2017-02-27T08:45:34.633Z,99.99
2017-02-27T08:46:34.623Z,99.99
2017-02-27T08:47:34.217Z,99.99
2017-02-27T08:48:34.602Z,99.99
2017-02-27T08:49:34.593Z,99.99
2017-02-27T08:50:34.584Z,99.99
2017-02-27T08:51:34.175Z,99.99
2017-02-27T08:52:34.570Z,99.99
2017-02-27T08:53:34.564Z,99.99
2017-02-27T08:54:34.556Z,99.99
2017-02-27T08:55:34.538Z,99.99
2017-02-27T08:56:34.524Z,99.99
2017-02-27T08:57:34.519Z,99.99
2017-02-27T08:58:34.505Z,99.99
2017-02-27T08:59:34.495Z,99.99
2017-02-27T09:00:34.489Z,99.99
2017-02-27T09:01:34.474Z,99.99
2017-02-27T09:02:34.465Z,99.99
2017-02-27T09:03:34.474Z,99.99
2017-02-27T09:04:34.050Z,99.99
2017-02-27T09:05:34.440Z,99.99
2017-02-27T09:06:34.427Z,99.99
2017-02-27T09:07:34.418Z,99.99
2017-02-27T09:08:34.408Z,99.99
2017-02-27T09:09:34.412Z,99.99
2017-02-27T09:10:34.392Z,99.99
2017-02-27T09:11:34.380Z,99.99
2017-02-27T09:12:33.984Z,99.99
2017-02-27T09:13:34.358Z,99.99
2017-02-27T09:14:34.367Z,99.99
2017-02-27T09:15:34.341Z,99.99
2017-02-27T09:16:33.934Z,99.99
2017-02-27T09:17:34.324Z,99.99
2017-02-27T09:18:34.328Z,99.99
2017-02-27T09:19:34.305Z,99.99
2017-02-27T09:20:34.295Z,99.99
2017-02-27T09:21:34.287Z,99.99
2017-02-27T09:22:34.288Z,99.99
2017-02-27T09:23:34.267Z,99.99
2017-02-27T09:24:34.258Z,99.99
2017-02-27T09:25:33.851Z,99.99
2017-02-27T09:26:34.241Z,99.99
2017-02-27T09:27:34.230Z,99.99
2017-02-27T09:28:34.234Z,99.99
2017-02-27T09:29:34.213Z,99.99
2017-02-27T09:30:34.202Z,99.99
2017-02-27T09:31:34.207Z,99.99
2017-02-27T09:32:34.187Z,99.99
2017-02-27T09:33:34.198Z,99.99
2017-02-27T09:34:34.171Z,99.99
2017-02-27T09:35:34.157Z,99.99
2017-02-27T09:36:34.149Z,99.99
2017-02-27T09:37:34.156Z,99.99
2017-02-27T09:38:33.739Z,99.99
2017-02-27T09:39:34.151Z,99.99
2017-02-27T09:40:34.118Z,99.99
2017-02-27T09:41:34.103Z,99.99
2017-02-27T09:42:34.096Z,99.99
2017-02-27T09:43:34.088Z,99.99
2017-02-27T09:44:34.078Z,99.99
2017-02-27T09:45:34.081Z,99.99
2017-02-27T09:46:34.061Z,99.99
2017-02-27T09:47:34.065Z,99.74
2017-02-27T09:48:34.043Z,98.88
2017-02-27T09:49:34.034Z,98.88
2017-02-27T09:50:34.025Z,99.99
2017-02-27T09:51:34.014Z,99.99
2017-02-27T09:52:34.021Z,99.65
2017-02-27T09:53:34.003Z,98.98
2017-02-27T09:54:34.003Z,98.69
2017-02-27T09:55:33.994Z,97.74
2017-02-27T09:56:33.973Z,97.46
2017-02-27T09:57:33.962Z,97.36
2017-02-27T09:58:33.969Z,98.03
2017-02-27T09:59:33.982Z,98.41
2017-02-27T10:00:33.941Z,99.99
2017-02-27T10:01:33.931Z,99.55
2017-02-27T10:02:33.920Z,98.88
2017-02-27T10:03:33.938Z,98.32
2017-02-27T10:04:33.903Z,97.55
2017-02-27T10:05:33.897Z,99.99
2017-02-27T10:06:33.888Z,99.99
2017-02-27T10:07:33.887Z,99.99
2017-02-27T10:08:33.873Z,99.36
2017-02-27T10:09:33.865Z,99.99
2017-02-27T10:10:33.857Z,98.32
2017-02-27T10:11:33.869Z,99.99
2017-02-27T10:12:33.837Z,99.99
2017-02-27T10:13:33.832Z,98.41
2017-02-27T10:14:33.821Z,96.41
2017-02-27T10:15:33.814Z,97.36
2017-02-27T10:16:33.808Z,99.22
2017-02-27T10:17:33.797Z,94.84
2017-02-27T10:18:33.785Z,96.46
2017-02-27T10:19:33.791Z,94.46
2017-02-27T10:20:33.768Z,93.32
2017-02-27T10:21:33.770Z,94.93
2017-02-27T10:22:33.759Z,94.32
2017-02-27T10:23:33.747Z,91.08
2017-02-27T10:24:33.736Z,88.6
2017-02-27T10:25:33.728Z,89.55
2017-02-27T10:26:33.734Z,88.31
2017-02-27T10:27:33.723Z,87.55
2017-02-27T10:28:33.710Z,89.65
2017-02-27T10:29:33.699Z,88.41
2017-02-27T10:30:33.695Z,83.45
2017-02-27T10:31:33.283Z,83.26
2017-02-27T10:32:33.696Z,85.17
2017-02-27T10:33:33.677Z,84.98
2017-02-27T10:34:33.659Z,85.36
2017-02-27T10:35:33.652Z,85.99
2017-02-27T10:36:33.650Z,87.6
2017-02-27T10:37:33.644Z,88.18
2017-02-27T10:38:33.633Z,89.51
2017-02-27T10:39:33.623Z,89.79
2017-02-27T10:40:33.616Z,87.13
2017-02-27T10:41:33.603Z,88.51
2017-02-27T10:42:33.595Z,86.98
2017-02-27T10:43:33.599Z,85.93
2017-02-27T10:44:33.579Z,84.98
2017-02-27T10:45:33.577Z,84.03
2017-02-27T10:46:33.564Z,87.84
2017-02-27T10:47:33.556Z,85.36
2017-02-27T10:48:33.556Z,82.98
2017-02-27T10:49:33.543Z,82.89
2017-02-27T10:50:33.537Z,82.79
2017-02-27T10:51:33.533Z,82.18
2017-02-27T10:52:33.515Z,83.41
2017-02-27T10:53:33.505Z,85.41
2017-02-27T10:54:33.511Z,86.36
2017-02-27T10:55:33.496Z,86.46
2017-02-27T10:56:33.483Z,86.61
2017-02-27T10:57:33.489Z,87.65
2017-02-27T10:58:33.477Z,87.37
2017-02-27T10:59:33.078Z,88.13
2017-02-27T11:00:33.454Z,91.51
2017-02-27T11:01:33.045Z,89.61
2017-02-27T11:02:33.447Z,88.56
2017-02-27T11:03:33.426Z,86.36
2017-02-27T11:04:33.420Z,83.7
2017-02-27T11:05:33.410Z,84.94
2017-02-27T11:06:33.402Z,85.41
2017-02-27T11:07:33.392Z,84.94
2017-02-27T11:08:33.395Z,84.17
2017-02-27T11:09:33.375Z,83.41
2017-02-27T11:10:33.368Z,82.65
2017-02-27T11:11:33.358Z,82.56
2017-02-27T11:12:33.358Z,81.89
2017-02-27T11:13:33.366Z,81.41
2017-02-27T11:14:33.334Z,81.7
2017-02-27T11:15:33.340Z,82.08
2017-02-27T11:16:33.318Z,82.65
2017-02-27T11:17:33.309Z,81.32
2017-02-27T11:18:33.302Z,81.89
2017-02-27T11:19:33.300Z,81.98
2017-02-27T11:20:33.287Z,82.93
2017-02-27T11:21:33.276Z,81.32
2017-02-27T11:22:33.266Z,82.37
2017-02-27T11:23:33.277Z,81.23
2017-02-27T11:24:33.250Z,80.46
2017-02-27T11:25:33.244Z,79.89
2017-02-27T11:26:33.234Z,79.7
2017-02-27T11:27:33.225Z,81.32
2017-02-27T11:28:33.216Z,81.13
2017-02-27T11:29:33.213Z,82.75
2017-02-27T11:30:33.200Z,80.65
2017-02-27T11:31:32.801Z,80.94
2017-02-27T11:32:33.183Z,81.32
2017-02-27T11:33:33.173Z,80.75
2017-02-27T11:34:33.170Z,84.84
2017-02-27T11:35:33.155Z,80.65
2017-02-27T11:36:33.148Z,80.08
2017-02-27T11:37:33.140Z,81.7
2017-02-27T11:38:33.128Z,79.83
2017-02-27T11:39:33.123Z,79.83
2017-02-27T11:40:33.115Z,80.88
2017-02-27T11:41:33.105Z,80.69
2017-02-27T11:42:33.103Z,80.98
2017-02-27T11:43:33.097Z,79.46
2017-02-27T11:44:33.083Z,78.88
2017-02-27T11:45:32.675Z,78.22
2017-02-27T11:46:33.069Z,77.93
2017-02-27T11:47:33.060Z,79.07
2017-02-27T11:48:33.054Z,77.36
2017-02-27T11:49:33.038Z,77.74
2017-02-27T11:50:33.047Z,78.88
2017-02-27T11:51:33.026Z,80.88
2017-02-27T11:52:33.017Z,82.6
2017-02-27T11:53:32.620Z,80.6
2017-02-27T11:54:32.621Z,79.27
2017-02-27T11:55:33.006Z,78.59
2017-02-27T11:56:32.984Z,76.79
2017-02-27T11:57:32.971Z,76.31
2017-02-27T11:58:32.969Z,79.46
2017-02-27T11:59:32.954Z,79.27
2017-02-27T12:00:32.945Z,75.64
2017-02-27T12:01:32.940Z,77.2
2017-02-27T12:02:32.932Z,75.4
2017-02-27T12:03:32.922Z,74.44
2017-02-27T12:04:32.913Z,72.63
2017-02-27T12:05:32.918Z,73.39
2017-02-27T12:06:32.903Z,72.97
2017-02-27T12:07:32.891Z,73.55
2017-02-27T12:08:32.894Z,74.02
2017-02-27T12:09:32.887Z,75.16
2017-02-27T12:10:32.867Z,75.64
2017-02-27T12:11:32.862Z,74.31
2017-02-27T12:12:32.861Z,74.02
2017-02-27T12:13:32.843Z,73.93
2017-02-27T12:14:32.835Z,74.69
2017-02-27T12:15:32.828Z,75.16
2017-02-27T12:16:32.817Z,74.31
2017-02-27T12:17:32.808Z,74.79
2017-02-27T12:18:32.828Z,74.31
2017-02-27T12:19:32.795Z,74.4
2017-02-27T12:20:32.787Z,75.26
2017-02-27T12:21:32.777Z,75.16
2017-02-27T12:22:32.778Z,75.45
2017-02-27T12:23:32.765Z,75.55
2017-02-27T12:24:32.757Z,74.31
2017-02-27T12:25:32.747Z,76.5
2017-02-27T12:26:32.736Z,75.55
2017-02-27T12:27:32.729Z,74.02
2017-02-27T12:28:32.736Z,73.74
2017-02-27T12:29:32.712Z,74.5
2017-02-27T12:30:32.732Z,74.5
2017-02-27T12:31:32.706Z,73.93
2017-02-27T12:32:32.291Z,71.93
2017-02-27T12:33:32.685Z,71.83
2017-02-27T12:34:32.674Z,72.31
2017-02-27T12:35:32.677Z,73.45
2017-02-27T12:36:32.668Z,73.36
2017-02-27T12:37:32.651Z,73.93
2017-02-27T12:38:32.649Z,76.03
2017-02-27T12:39:32.643Z,76.59
2017-02-27T12:40:32.638Z,75.16
2017-02-27T12:41:32.619Z,73.65
2017-02-27T12:42:32.625Z,74.31
2017-02-27T12:43:32.599Z,73.36
2017-02-27T12:44:32.593Z,72.88
2017-02-27T12:45:32.599Z,72.5
2017-02-27T12:46:32.580Z,73.36
2017-02-27T12:47:32.574Z,73.36
2017-02-27T12:48:32.562Z,71.93
2017-02-27T12:49:32.552Z,73.3
2017-02-27T12:50:32.548Z,74.06
2017-02-27T12:51:32.544Z,71.58
2017-02-27T12:52:32.533Z,69.74
2017-02-27T12:53:32.125Z,70.4
2017-02-27T12:54:32.512Z,70.02
2017-02-27T12:55:32.110Z,69.64
2017-02-27T12:56:32.497Z,69.96
2017-02-27T12:57:32.490Z,70.59
2017-02-27T12:58:32.480Z,70.82
2017-02-27T12:59:32.485Z,68.44
2017-02-27T13:00:32.476Z,68.34
2017-02-27T13:01:32.470Z,70.78
2017-02-27T13:02:32.457Z,70.34
2017-02-27T13:03:32.445Z,69.77
2017-02-27T13:04:32.441Z,70.4
2017-02-27T13:05:32.429Z,70.25
2017-02-27T13:06:32.421Z,69.01
2017-02-27T13:07:32.412Z,68.15
2017-02-27T13:08:32.008Z,67.58
2017-02-27T13:09:32.001Z,67.39
2017-02-27T13:10:32.392Z,67.86
2017-02-27T13:11:32.380Z,67.29